createdAt,value
2018-12-10T00:03:12.608Z,-0.30
2018-12-10T00:05:47.751Z,-0.30
2018-12-10T00:08:24.186Z,-0.30
2018-12-10T00:10:59.025Z,-0.30
2018-12-10T00:13:33.982Z,-0.30
2018-12-10T00:16:08.956Z,-0.30
2018-12-10T00:18:43.486Z,-0.20
2018-12-10T00:21:22.051Z,-0.20
2018-12-10T00:23:58.945Z,-0.20
2018-12-10T00:26:33.709Z,-0.20
2018-12-10T00:29:10.151Z,-0.20
2018-12-10T00:31:45.714Z,-0.20
2018-12-10T00:34:21.163Z,-0.20
2018-12-10T00:39:58.163Z,-0.20
2018-12-10T00:42:32.888Z,-0.30
2018-12-10T00:45:10.557Z,-0.30
2018-12-10T00:47:45.812Z,-0.30
2018-12-10T00:50:20.970Z,-0.50
2018-12-10T00:55:58.390Z,-0.70
2018-12-10T00:58:34.886Z,-0.80
2018-12-10T01:01:11.688Z,-0.80
2018-12-10T01:03:46.920Z,-0.90
2018-12-10T01:06:20.228Z,-0.90
2018-12-10T01:08:53.372Z,-1.00
2018-12-10T01:11:29.866Z,-1.00
2018-12-10T01:14:05.010Z,-1.10
2018-12-10T01:16:42.032Z,-1.30
2018-12-10T01:19:17.532Z,-1.40
2018-12-10T01:21:52.702Z,-1.30
2018-12-10T01:24:27.708Z,-1.30
2018-12-10T01:27:00.497Z,-1.40
2018-12-10T01:29:36.986Z,-1.40
2018-12-10T01:32:11.349Z,-1.40
2018-12-10T01:34:44.210Z,-1.40
2018-12-10T01:37:21.098Z,-1.50
2018-12-10T01:39:56.628Z,-1.60
2018-12-10T01:42:31.561Z,-1.60
2018-12-10T01:45:09.354Z,-1.70
2018-12-10T01:47:43.697Z,-1.80
2018-12-10T01:50:20.477Z,-1.90
2018-12-10T01:52:55.628Z,-2.00
2018-12-10T01:55:30.184Z,-2.00
2018-12-10T01:58:05.185Z,-2.10
2018-12-10T02:00:40.089Z,-2.20
2018-12-10T02:03:16.653Z,-2.20
2018-12-10T02:05:51.180Z,-2.30
2018-12-10T02:08:25.964Z,-2.30
2018-12-10T02:11:00.922Z,-2.30
2018-12-10T02:13:37.170Z,-2.30
2018-12-10T02:16:14.725Z,-2.30
2018-12-10T02:18:49.163Z,-2.30
2018-12-10T02:21:24.016Z,-2.40
2018-12-10T02:24:00.554Z,-2.50
2018-12-10T02:26:36.500Z,-2.50
2018-12-10T02:29:16.455Z,-2.40
2018-12-10T02:31:51.639Z,-2.30
2018-12-10T02:34:27.064Z,-2.20
2018-12-10T02:37:05.086Z,-2.10
2018-12-10T02:39:39.978Z,-2.00
2018-12-10T02:42:14.467Z,-2.00
2018-12-10T02:45:05.918Z,-2.00
2018-12-10T02:47:41.545Z,-1.90
2018-12-10T02:50:16.940Z,-1.80
2018-12-10T02:52:52.771Z,-1.80
2018-12-10T02:58:29.958Z,-1.90
2018-12-10T03:04:03.434Z,-1.70
2018-12-10T03:06:38.908Z,-1.70
2018-12-10T03:09:13.457Z,-1.60
2018-12-10T03:14:46.609Z,-1.50
2018-12-10T03:17:22.001Z,-1.40
2018-12-10T03:19:58.305Z,-1.40
2018-12-10T03:22:33.353Z,-1.40
2018-12-10T03:25:10.243Z,-1.40
2018-12-10T03:27:45.418Z,-1.50
2018-12-10T03:30:20.583Z,-1.40
2018-12-10T03:32:56.999Z,-1.40
2018-12-10T03:35:32.594Z,-1.50
2018-12-10T03:38:08.205Z,-1.50
2018-12-10T03:40:42.999Z,-1.50
2018-12-10T03:43:19.329Z,-1.60
2018-12-10T03:45:54.409Z,-1.60
2018-12-10T03:48:29.471Z,-1.60
2018-12-10T03:51:05.881Z,-1.60
2018-12-10T03:53:41.159Z,-1.60
2018-12-10T03:56:18.354Z,-1.70
2018-12-10T03:58:54.617Z,-1.70
2018-12-10T04:01:29.342Z,-1.70
2018-12-10T04:04:04.997Z,-1.70
2018-12-10T04:06:43.291Z,-1.70
2018-12-10T04:09:20.238Z,-1.70
2018-12-10T04:11:56.510Z,-1.80
2018-12-10T04:14:31.373Z,-1.80
2018-12-10T04:17:05.869Z,-1.80
2018-12-10T04:19:42.805Z,-1.80
2018-12-10T04:22:19.725Z,-1.80
2018-12-10T04:24:55.025Z,-1.80
2018-12-10T04:27:27.903Z,-1.80
2018-12-10T04:30:03.874Z,-1.80
2018-12-10T04:32:39.092Z,-1.80
2018-12-10T04:35:13.688Z,-1.80
2018-12-10T04:37:48.397Z,-1.80
2018-12-10T04:40:25.105Z,-1.90
2018-12-10T04:43:00.549Z,-1.90
2018-12-10T04:45:35.029Z,-1.90
2018-12-10T04:48:08.161Z,-2.00
2018-12-10T04:50:44.410Z,-2.10
2018-12-10T04:53:19.374Z,-2.20
2018-12-10T04:55:56.234Z,-2.20
2018-12-10T04:58:31.181Z,-2.30
2018-12-10T05:01:07.461Z,-2.40
2018-12-10T05:03:43.193Z,-2.40
2018-12-10T05:06:18.529Z,-2.50
2018-12-10T05:08:53.358Z,-2.60
2018-12-10T05:11:29.609Z,-2.60
2018-12-10T05:14:04.245Z,-2.70
2018-12-10T05:16:50.558Z,-2.60
2018-12-10T05:22:27.879Z,-2.60
2018-12-10T05:25:02.795Z,-2.70
2018-12-10T05:27:37.970Z,-2.80
2018-12-10T05:30:12.866Z,-2.90
2018-12-10T05:32:48.222Z,-3.00
2018-12-10T05:35:23.054Z,-3.10
2018-12-10T05:37:57.877Z,-3.30
2018-12-10T05:40:34.367Z,-3.40
2018-12-10T05:43:08.719Z,-3.50
2018-12-10T05:45:43.585Z,-3.60
2018-12-10T05:48:18.772Z,-3.60
2018-12-10T05:50:51.833Z,-3.70
2018-12-10T05:53:26.805Z,-3.70
2018-12-10T05:56:01.310Z,-3.70
2018-12-10T05:58:35.866Z,-3.80
2018-12-10T06:01:09.003Z,-4.00
2018-12-10T06:03:43.581Z,-4.10
2018-12-10T06:06:18.500Z,-4.20
2018-12-10T06:08:51.164Z,-4.40
2018-12-10T06:11:23.665Z,-4.50
2018-12-10T06:13:57.241Z,-4.60
2018-12-10T06:19:34.094Z,-4.70
2018-12-10T06:22:09.314Z,-4.80
2018-12-10T06:24:43.866Z,-4.90
2018-12-10T06:27:18.997Z,-4.90
2018-12-10T06:29:53.545Z,-5.00
2018-12-10T06:32:28.361Z,-5.10
2018-12-10T06:35:01.426Z,-5.10
2018-12-10T06:37:37.677Z,-5.20
2018-12-10T06:40:19.806Z,-5.20
2018-12-10T06:42:54.485Z,-5.30
2018-12-10T06:45:29.246Z,-5.40
2018-12-10T06:48:03.682Z,-5.50
2018-12-10T06:50:38.990Z,-5.60
2018-12-10T06:53:13.681Z,-5.70
2018-12-10T06:55:48.473Z,-5.90
2018-12-10T06:58:23.585Z,-5.90
2018-12-10T07:01:00.274Z,-6.00
2018-12-10T07:03:34.506Z,-6.10
2018-12-10T07:06:09.318Z,-6.20
2018-12-10T07:11:46.581Z,-6.20
2018-12-10T07:14:23.291Z,-6.20
2018-12-10T07:16:57.934Z,-6.30
2018-12-10T07:19:32.865Z,-6.40
2018-12-10T07:22:08.385Z,-6.50
2018-12-10T07:27:46.185Z,-6.60
2018-12-10T07:30:21.290Z,-6.70
2018-12-10T07:32:57.622Z,-6.70
2018-12-10T07:35:32.858Z,-6.80
2018-12-10T07:38:07.997Z,-6.90
2018-12-10T07:40:43.318Z,-7.00
2018-12-10T07:43:18.353Z,-7.00
2018-12-10T07:45:53.269Z,-7.20
2018-12-10T07:48:28.138Z,-7.30
2018-12-10T07:51:02.701Z,-7.30
2018-12-10T07:53:37.213Z,-7.20
2018-12-10T07:59:14.497Z,-7.30
2018-12-10T08:01:49.305Z,-7.40
2018-12-10T08:04:24.153Z,-7.40
2018-12-10T08:06:58.781Z,-7.40
2018-12-10T08:09:34.165Z,-7.50
2018-12-10T08:12:08.757Z,-7.60
2018-12-10T08:14:44.121Z,-7.70
2018-12-10T08:17:20.573Z,-7.70
2018-12-10T08:19:56.633Z,-7.70
2018-12-10T08:22:32.752Z,-7.70
2018-12-10T08:25:07.561Z,-7.70
2018-12-10T08:27:43.846Z,-7.80
2018-12-10T08:30:19.089Z,-7.80
2018-12-10T08:32:53.935Z,-7.90
2018-12-10T08:35:29.116Z,-7.90
2018-12-10T08:38:05.333Z,-8.10
2018-12-10T08:40:40.010Z,-8.10
2018-12-10T08:43:14.906Z,-8.30
2018-12-10T08:45:50.101Z,-8.30
2018-12-10T08:48:27.621Z,-8.30
2018-12-10T08:51:02.650Z,-8.30
2018-12-10T08:53:37.990Z,-8.30
2018-12-10T08:56:12.803Z,-8.30
2018-12-10T08:58:47.885Z,-8.20
2018-12-10T09:01:24.376Z,-8.30
2018-12-10T09:03:58.601Z,-8.30
2018-12-10T09:06:33.737Z,-8.40
2018-12-10T09:09:10.508Z,-8.50
2018-12-10T09:11:47.219Z,-8.60
2018-12-10T09:14:20.133Z,-8.60
2018-12-10T09:16:56.747Z,-8.70
2018-12-10T09:19:32.032Z,-8.90
2018-12-10T09:22:06.972Z,-9.00
2018-12-10T09:24:49.207Z,-9.10
2018-12-10T09:27:26.557Z,-9.10
2018-12-10T09:30:01.506Z,-9.20
2018-12-10T09:32:36.325Z,-9.30
2018-12-10T09:38:13.554Z,-9.50
2018-12-10T09:40:47.014Z,-9.60
2018-12-10T09:43:22.009Z,-9.80
2018-12-10T09:45:55.013Z,-9.80
2018-12-10T09:51:32.058Z,-9.90
2018-12-10T09:57:01.558Z,-10.00
2018-12-10T09:59:35.810Z,-10.20
2018-12-10T10:02:12.393Z,-10.40
2018-12-10T10:07:50.334Z,-10.60
2018-12-10T10:10:25.190Z,-10.60
2018-12-10T10:13:01.938Z,-10.60
2018-12-10T10:15:36.282Z,-10.70
2018-12-10T10:18:13.067Z,-10.80
2018-12-10T10:20:49.767Z,-11.00
2018-12-10T10:23:24.773Z,-11.00
2018-12-10T10:25:59.120Z,-11.00
2018-12-10T10:28:34.314Z,-10.80
2018-12-10T10:31:11.174Z,-10.70
2018-12-10T10:33:47.682Z,-10.70
2018-12-10T10:36:23.175Z,-10.70
2018-12-10T10:42:00.865Z,-10.70
2018-12-10T10:44:36.205Z,-10.80
2018-12-10T10:47:10.926Z,-10.70
2018-12-10T10:52:48.683Z,-10.70
2018-12-10T11:01:31.691Z,-10.90
2018-12-10T11:04:11.550Z,-10.80
2018-12-10T11:09:44.382Z,-10.70
2018-12-10T11:15:21.741Z,-10.70
2018-12-10T11:17:56.912Z,-10.70
2018-12-10T11:20:34.650Z,-10.70
2018-12-10T11:23:08.861Z,-10.70
2018-12-10T11:25:50.385Z,-10.70
2018-12-10T11:31:17.795Z,-10.70
2018-12-10T11:33:52.801Z,-10.80
2018-12-10T11:36:27.925Z,-10.80
2018-12-10T11:39:05.022Z,-10.90
2018-12-10T11:41:41.597Z,-11.00
2018-12-10T11:44:23.818Z,-11.00
2018-12-10T11:49:53.529Z,-11.10
2018-12-10T11:52:28.680Z,-11.30
2018-12-10T11:55:03.996Z,-11.40
2018-12-10T12:00:41.196Z,-11.70
2018-12-10T12:03:16.317Z,-11.80
2018-12-10T12:05:51.230Z,-11.90
2018-12-10T12:11:22.591Z,-11.90
2018-12-10T12:13:57.536Z,-11.80
2018-12-10T12:19:36.074Z,-11.70
2018-12-10T12:22:12.957Z,-11.60
2018-12-10T12:27:50.366Z,-11.60
2018-12-10T12:33:34.957Z,-11.70
2018-12-10T12:36:12.030Z,-11.90
2018-12-10T12:38:46.198Z,-11.90
2018-12-10T12:41:23.204Z,-11.90
2018-12-10T12:43:57.934Z,-12.00
2018-12-10T12:46:32.470Z,-12.00
2018-12-10T12:49:05.689Z,-12.00
2018-12-10T12:51:40.798Z,-12.10
2018-12-10T12:54:15.845Z,-12.20
2018-12-10T12:56:50.941Z,-12.10
2018-12-10T12:59:25.793Z,-12.00
2018-12-10T13:01:58.910Z,-11.80
2018-12-10T13:04:35.548Z,-11.70
2018-12-10T13:07:26.941Z,-11.70
2018-12-10T13:10:01.970Z,-11.60
2018-12-10T13:12:36.972Z,-11.50
2018-12-10T13:15:12.236Z,-11.40
2018-12-10T13:17:47.964Z,-11.30
2018-12-10T13:23:16.965Z,-11.20
2018-12-10T13:28:55.865Z,-11.00
2018-12-10T13:31:30.722Z,-10.80
2018-12-10T13:34:05.576Z,-10.70
2018-12-10T13:36:41.081Z,-10.70
2018-12-10T13:39:15.841Z,-10.70
2018-12-10T13:41:50.794Z,-10.60
2018-12-10T13:50:30.442Z,-10.40
2018-12-10T13:55:58.037Z,-10.20
2018-12-10T13:58:30.962Z,-10.10
2018-12-10T14:01:04.197Z,-10.10
2018-12-10T14:06:41.310Z,-9.90
2018-12-10T14:09:16.569Z,-9.80
2018-12-10T14:11:49.766Z,-9.80
2018-12-10T14:14:25.181Z,-9.70
2018-12-10T14:16:59.416Z,-9.60
2018-12-10T14:19:34.613Z,-9.50
2018-12-10T14:22:11.034Z,-9.40
2018-12-10T14:24:45.453Z,-9.30
2018-12-10T14:27:20.512Z,-9.20
2018-12-10T14:29:55.399Z,-9.20
2018-12-10T14:32:30.238Z,-9.10
2018-12-10T14:35:06.558Z,-9.00
2018-12-10T14:37:41.780Z,-9.00
2018-12-10T14:40:16.888Z,-8.90
2018-12-10T14:42:54.721Z,-8.80
2018-12-10T14:45:29.533Z,-8.80
2018-12-10T14:48:04.316Z,-8.70
2018-12-10T14:50:39.336Z,-8.60
2018-12-10T14:53:14.314Z,-8.60
2018-12-10T14:55:51.042Z,-8.50
2018-12-10T15:01:28.569Z,-8.30
2018-12-10T15:04:03.401Z,-8.30
2018-12-10T15:06:38.457Z,-8.20
2018-12-10T15:09:14.151Z,-8.10
2018-12-10T15:11:48.417Z,-8.00
2018-12-10T15:14:23.413Z,-7.90
2018-12-10T15:17:00.009Z,-7.80
2018-12-10T15:19:34.426Z,-7.70
2018-12-10T15:25:11.878Z,-7.50
2018-12-10T15:27:46.896Z,-7.50
2018-12-10T15:30:22.003Z,-7.40
2018-12-10T15:32:56.636Z,-7.40
2018-12-10T15:35:31.592Z,-7.30
2018-12-10T15:38:08.171Z,-7.30
2018-12-10T15:40:44.136Z,-7.30
2018-12-10T15:43:18.891Z,-7.30
2018-12-10T15:45:53.773Z,-7.20
2018-12-10T15:48:30.317Z,-7.10
2018-12-10T15:51:05.332Z,-7.10
2018-12-10T15:59:52.709Z,-6.60
2018-12-10T16:02:28.218Z,-6.30
2018-12-10T16:05:03.052Z,-6.10
2018-12-10T16:07:37.942Z,-5.90
2018-12-10T16:10:12.738Z,-5.50
2018-12-10T16:12:47.505Z,-5.40
2018-12-10T16:15:22.669Z,-5.20
2018-12-10T16:17:57.559Z,-5.20
2018-12-10T16:20:32.289Z,-4.80
2018-12-10T16:23:07.608Z,-4.60
2018-12-10T16:25:40.412Z,-4.50
2018-12-10T16:28:17.105Z,-4.60
2018-12-10T16:30:52.948Z,-4.50
2018-12-10T16:33:27.369Z,-4.50
2018-12-10T16:36:03.093Z,-4.40
2018-12-10T16:38:39.701Z,-4.30
2018-12-10T16:41:16.202Z,-4.20
2018-12-10T16:50:00.145Z,-4.00
2018-12-10T16:55:42.754Z,-3.90
2018-12-10T16:58:16.954Z,-3.90
2018-12-10T17:00:52.134Z,-3.80
2018-12-10T17:03:28.501Z,-3.60
2018-12-10T17:06:03.415Z,-3.70
2018-12-10T17:08:38.649Z,-3.80
2018-12-10T17:17:19.138Z,-3.30
2018-12-10T17:19:56.166Z,-4.20
2018-12-10T17:22:30.410Z,-4.10
2018-12-10T17:25:05.715Z,-3.70
2018-12-10T17:32:43.925Z,-3.60
2018-12-10T17:35:20.841Z,-3.80
2018-12-10T17:40:58.253Z,-3.50
2018-12-10T17:43:34.151Z,-3.20
2018-12-10T17:49:28.503Z,-3.30
2018-12-10T17:52:03.348Z,-3.10
2018-12-10T17:54:38.385Z,-3.10
2018-12-10T17:57:13.257Z,-3.10
2018-12-10T17:59:48.166Z,-3.00
2018-12-10T18:02:22.974Z,-3.00
2018-12-10T18:04:57.726Z,-3.00
2018-12-10T18:10:35.184Z,-3.00
2018-12-10T18:13:11.430Z,-3.10
2018-12-10T18:15:47.313Z,-3.00
2018-12-10T18:18:23.590Z,-3.10
2018-12-10T18:21:00.131Z,-3.10
2018-12-10T18:23:45.942Z,-3.30
2018-12-10T18:26:23.121Z,-3.30
2018-12-10T18:28:57.657Z,-4.00
2018-12-10T18:31:34.329Z,-4.10
2018-12-10T18:37:04.037Z,-3.30
2018-12-10T18:39:38.803Z,-3.70
2018-12-10T18:42:14.718Z,-3.70
2018-12-10T18:44:51.685Z,-3.80
2018-12-10T18:47:27.730Z,-3.80
2018-12-10T18:50:02.448Z,-3.70
2018-12-10T18:52:36.990Z,-3.50
2018-12-10T18:55:12.173Z,-3.70
2018-12-10T18:57:47.158Z,-3.50
2018-12-10T19:03:24.333Z,-3.40
2018-12-10T19:05:59.583Z,-3.40
2018-12-10T19:08:34.254Z,-3.40
2018-12-10T19:11:11.291Z,-3.50
2018-12-10T19:13:43.825Z,-3.30
2018-12-10T19:16:18.605Z,-3.30
2018-12-10T19:18:53.515Z,-3.20
2018-12-10T19:21:30.425Z,-3.30
2018-12-10T19:24:05.913Z,-3.70
2018-12-10T19:26:40.222Z,-3.80
2018-12-10T19:29:16.991Z,-3.70
2018-12-10T19:31:51.346Z,-4.00
2018-12-10T19:34:28.204Z,-4.10
2018-12-10T19:37:03.232Z,-4.10
2018-12-10T19:39:39.662Z,-4.10
2018-12-10T19:42:14.919Z,-4.20
2018-12-10T19:47:46.252Z,-4.20
2018-12-10T19:50:21.690Z,-4.20
2018-12-10T19:52:57.845Z,-4.30
2018-12-10T19:58:35.941Z,-4.60
2018-12-10T20:01:10.299Z,-4.80
2018-12-10T20:03:44.977Z,-5.00
2018-12-10T20:06:26.173Z,-5.20
2018-12-10T20:09:00.880Z,-5.40
2018-12-10T20:11:33.394Z,-5.70
2018-12-10T20:14:08.294Z,-5.90
2018-12-10T20:16:44.793Z,-6.10
2018-12-10T20:19:19.807Z,-6.30
2018-12-10T20:21:56.498Z,-6.50
2018-12-10T20:24:31.624Z,-6.60
2018-12-10T20:27:06.473Z,-6.70
2018-12-10T20:29:41.433Z,-6.70
2018-12-10T20:42:50.639Z,-7.10
2018-12-10T20:45:26.649Z,-7.20
2018-12-10T20:54:01.106Z,-7.60
2018-12-10T20:56:35.482Z,-7.50
2018-12-10T20:59:11.057Z,-7.40
2018-12-10T21:04:53.436Z,-7.40
2018-12-10T21:07:28.558Z,-7.50
2018-12-10T21:10:03.557Z,-7.70
2018-12-10T21:12:36.566Z,-7.80
2018-12-10T21:15:12.022Z,-8.00
2018-12-10T21:17:47.318Z,-8.20
2018-12-10T21:20:20.248Z,-8.20
2018-12-10T21:22:54.786Z,-8.30
2018-12-10T21:31:30.683Z,-8.80
2018-12-10T21:34:06.774Z,-8.90
2018-12-10T21:36:41.854Z,-9.10
2018-12-10T21:39:17.087Z,-9.10
2018-12-10T21:41:52.037Z,-9.30
2018-12-10T21:44:42.325Z,-9.40
2018-12-10T21:57:27.661Z,-10.30
2018-12-10T22:00:02.282Z,-10.40
2018-12-10T22:02:39.993Z,-10.60
2018-12-10T22:05:22.793Z,-10.80
2018-12-10T22:07:57.877Z,-11.00
2018-12-10T22:10:44.298Z,-11.10
2018-12-10T22:13:19.367Z,-11.30
2018-12-10T22:15:55.017Z,-11.30
2018-12-10T22:18:31.294Z,-11.30
2018-12-10T22:21:10.969Z,-11.20
2018-12-10T22:23:45.347Z,-11.30
2018-12-10T22:26:20.281Z,-11.50
2018-12-10T22:28:56.413Z,-11.50
2018-12-10T22:31:31.381Z,-11.60
2018-12-10T22:34:06.505Z,-11.60
2018-12-10T22:36:41.444Z,-11.70
2018-12-10T22:39:22.707Z,-11.90
2018-12-10T22:41:57.352Z,-11.80
2018-12-10T22:44:32.906Z,-11.70
2018-12-10T22:47:07.937Z,-11.70
2018-12-10T22:49:43.116Z,-11.70
2018-12-10T22:58:23.895Z,-11.60
2018-12-10T23:10:07.162Z,-12.40
2018-12-10T23:12:42.738Z,-12.50
2018-12-10T23:15:24.945Z,-12.40
2018-12-10T23:17:59.389Z,-12.40
2018-12-10T23:23:39.971Z,-12.80
2018-12-10T23:26:15.007Z,-12.90
2018-12-10T23:28:49.995Z,-13.10
2018-12-10T23:34:21.599Z,-13.00
2018-12-10T23:36:56.286Z,-13.00
2018-12-10T23:45:26.296Z,-13.10
2018-12-10T23:48:02.891Z,-13.20
2018-12-10T23:50:39.150Z,-13.30
2018-12-10T23:53:14.990Z,-13.30
2018-12-10T23:55:48.301Z,-13.20
2018-12-10T23:58:30.637Z,-13.00
